sensor_id;sensor_type;location;lat;lon;timestamp;P1;durP1;ratioP1;P2;durP2;ratioP2
50781;SDS011;36749;37.428;-121.972;2023-09-07T00:00:23;21.85;;;4.85;;
50781;SDS011;36749;37.428;-121.972;2023-09-07T00:02:49;16.45;;;4.20;;
50781;SDS011;36749;37.428;-121.972;2023-09-07T00:05:15;22.85;;;5.53;;
50781;SDS011;36749;37.428;-121.972;2023-09-07T00:07:42;31.73;;;6.38;;
50781;SDS011;36749;37.428;-121.972;2023-09-07T00:10:08;43.53;;;6.65;;
50781;SDS011;36749;37.428;-121.972;2023-09-07T00:12:34;18.08;;;4.85;;
50781;SDS011;36749;37.428;-121.972;2023-09-07T00:15:04;17.55;;;4.63;;
50781;SDS011;36749;37.428;-121.972;2023-09-07T00:17:32;16.67;;;4.82;;
50781;SDS011;36749;37.428;-121.972;2023-09-07T00:19:58;19.85;;;4.53;;
50781;SDS011;36749;37.428;-121.972;2023-09-07T00:22:24;16.67;;;5.03;;
50781;SDS011;36749;37.428;-121.972;2023-09-07T00:24:53;16.35;;;4.55;;
50781;SDS011;36749;37.428;-121.972;2023-09-07T00:27:19;16.38;;;4.80;;
50781;SDS011;36749;37.428;-121.972;2023-09-07T00:29:45;18.55;;;4.50;;
50781;SDS011;36749;37.428;-121.972;2023-09-07T00:32:13;13.60;;;3.72;;
50781;SDS011;36749;37.428;-121.972;2023-09-07T00:34:39;18.38;;;4.60;;
50781;SDS011;36749;37.428;-121.972;2023-09-07T00:37:06;14.98;;;3.97;;
50781;SDS011;36749;37.428;-121.972;2023-09-07T00:39:32;43.45;;;6.95;;
50781;SDS011;36749;37.428;-121.972;2023-09-07T00:41:58;15.13;;;4.55;;
50781;SDS011;36749;37.428;-121.972;2023-09-07T00:44:26;14.18;;;4.30;;
50781;SDS011;36749;37.428;-121.972;2023-09-07T00:46:52;16.05;;;4.22;;
50781;SDS011;36749;37.428;-121.972;2023-09-07T00:49:19;16.63;;;4.15;;
50781;SDS011;36749;37.428;-121.972;2023-09-07T00:51:45;15.32;;;4.45;;
50781;SDS011;36749;37.428;-121.972;2023-09-07T00:54:12;15.98;;;3.88;;
50781;SDS011;36749;37.428;-121.972;2023-09-07T00:56:38;19.20;;;4.03;;
50781;SDS011;36749;37.428;-121.972;2023-09-07T00:59:06;32.22;;;6.25;;
50781;SDS011;36749;37.428;-121.972;2023-09-07T01:01:34;15.75;;;4.50;;
50781;SDS011;36749;37.428;-121.972;2023-09-07T01:04:04;18.13;;;4.75;;
50781;SDS011;36749;37.428;-121.972;2023-09-07T01:06:38;13.07;;;4.15;;
50781;SDS011;36749;37.428;-121.972;2023-09-07T01:09:14;14.48;;;3.60;;
50781;SDS011;36749;37.428;-121.972;2023-09-07T01:11:43;17.38;;;4.53;;
50781;SDS011;36749;37.428;-121.972;2023-09-07T01:14:09;31.10;;;4.95;;
50781;SDS011;36749;37.428;-121.972;2023-09-07T01:16:39;34.55;;;6.05;;
50781;SDS011;36749;37.428;-121.972;2023-09-07T01:19:08;27.48;;;6.35;;
50781;SDS011;36749;37.428;-121.972;2023-09-07T01:21:35;20.15;;;4.50;;
50781;SDS011;36749;37.428;-121.972;2023-09-07T01:24:09;19.85;;;4.80;;
50781;SDS011;36749;37.428;-121.972;2023-09-07T01:26:35;20.15;;;4.22;;
50781;SDS011;36749;37.428;-121.972;2023-09-07T01:29:05;17.13;;;4.50;;
50781;SDS011;36749;37.428;-121.972;2023-09-07T01:31:35;35.85;;;5.13;;
50781;SDS011;36749;37.428;-121.972;2023-09-07T01:34:03;16.55;;;4.25;;
50781;SDS011;36749;37.428;-121.972;2023-09-07T01:36:31;16.00;;;4.50;;
50781;SDS011;36749;37.428;-121.972;2023-09-07T01:38:58;15.77;;;4.80;;
50781;SDS011;36749;37.428;-121.972;2023-09-07T01:41:24;22.40;;;4.60;;
50781;SDS011;36749;37.428;-121.972;2023-09-07T01:43:50;16.55;;;4.25;;
50781;SDS011;36749;37.428;-121.972;2023-09-07T01:46:17;17.92;;;5.00;;
50781;SDS011;36749;37.428;-121.972;2023-09-07T01:48:43;16.52;;;4.75;;
50781;SDS011;36749;37.428;-121.972;2023-09-07T01:51:10;13.95;;;4.25;;
50781;SDS011;36749;37.428;-121.972;2023-09-07T01:53:36;16.02;;;4.00;;
50781;SDS011;36749;37.428;-121.972;2023-09-07T01:56:02;19.52;;;4.82;;
50781;SDS011;36749;37.428;-121.972;2023-09-07T01:58:29;16.98;;;4.53;;
50781;SDS011;36749;37.428;-121.972;2023-09-07T02:00:58;14.18;;;4.07;;
50781;SDS011;36749;37.428;-121.972;2023-09-07T02:03:25;19.52;;;4.22;;
50781;SDS011;36749;37.428;-121.972;2023-09-07T02:05:54;14.10;;;4.43;;
50781;SDS011;36749;37.428;-121.972;2023-09-07T02:08:20;12.73;;;3.70;;
50781;SDS011;36749;37.428;-121.972;2023-09-07T02:10:46;13.00;;;4.15;;
50781;SDS011;36749;37.428;-121.972;2023-09-07T02:13:13;21.65;;;4.95;;
50781;SDS011;36749;37.428;-121.972;2023-09-07T02:15:39;13.95;;;4.28;;
50781;SDS011;36749;37.428;-121.972;2023-09-07T02:18:05;16.20;;;4.47;;
50781;SDS011;36749;37.428;-121.972;2023-09-07T02:20:32;12.32;;;4.03;;
50781;SDS011;36749;37.428;-121.972;2023-09-07T02:22:58;15.93;;;4.82;;
50781;SDS011;36749;37.428;-121.972;2023-09-07T02:25:25;15.77;;;4.78;;
50781;SDS011;36749;37.428;-121.972;2023-09-07T02:27:52;17.70;;;3.83;;
50781;SDS011;36749;37.428;-121.972;2023-09-07T02:30:19;14.30;;;3.88;;
50781;SDS011;36749;37.428;-121.972;2023-09-07T02:32:45;14.18;;;4.45;;
50781;SDS011;36749;37.428;-121.972;2023-09-07T02:35:11;17.42;;;3.65;;
50781;SDS011;36749;37.428;-121.972;2023-09-07T02:37:37;14.80;;;3.97;;
50781;SDS011;36749;37.428;-121.972;2023-09-07T02:40:04;15.85;;;4.25;;
50781;SDS011;36749;37.428;-121.972;2023-09-07T02:42:33;15.40;;;4.72;;
50781;SDS011;36749;37.428;-121.972;2023-09-07T02:44:59;17.13;;;4.07;;
50781;SDS011;36749;37.428;-121.972;2023-09-07T02:47:25;16.05;;;4.90;;
50781;SDS011;36749;37.428;-121.972;2023-09-07T02:49:52;18.00;;;4.75;;
50781;SDS011;36749;37.428;-121.972;2023-09-07T02:52:18;16.85;;;4.55;;
50781;SDS011;36749;37.428;-121.972;2023-09-07T02:54:44;13.30;;;4.00;;
50781;SDS011;36749;37.428;-121.972;2023-09-07T02:57:10;18.88;;;4.43;;
50781;SDS011;36749;37.428;-121.972;2023-09-07T02:59:37;18.67;;;4.60;;
50781;SDS011;36749;37.428;-121.972;2023-09-07T03:02:04;16.95;;;4.63;;
50781;SDS011;36749;37.428;-121.972;2023-09-07T03:04:30;16.63;;;4.63;;
50781;SDS011;36749;37.428;-121.972;2023-09-07T03:06:56;15.48;;;4.88;;
50781;SDS011;36749;37.428;-121.972;2023-09-07T03:09:22;17.33;;;4.32;;
50781;SDS011;36749;37.428;-121.972;2023-09-07T03:11:48;17.48;;;5.10;;
50781;SDS011;36749;37.428;-121.972;2023-09-07T03:14:15;32.28;;;6.78;;
50781;SDS011;36749;37.428;-121.972;2023-09-07T03:16:41;19.17;;;4.47;;
50781;SDS011;36749;37.428;-121.972;2023-09-07T03:19:07;19.00;;;4.57;;
50781;SDS011;36749;37.428;-121.972;2023-09-07T03:21:33;19.17;;;4.55;;
50781;SDS011;36749;37.428;-121.972;2023-09-07T03:24:00;15.27;;;4.57;;
50781;SDS011;36749;37.428;-121.972;2023-09-07T03:26:26;20.45;;;5.28;;
50781;SDS011;36749;37.428;-121.972;2023-09-07T03:28:52;14.52;;;4.63;;
50781;SDS011;36749;37.428;-121.972;2023-09-07T03:31:18;15.43;;;4.50;;
50781;SDS011;36749;37.428;-121.972;2023-09-07T03:33:45;16.90;;;4.60;;
50781;SDS011;36749;37.428;-121.972;2023-09-07T03:36:11;18.40;;;5.00;;
50781;SDS011;36749;37.428;-121.972;2023-09-07T03:38:40;19.23;;;4.75;;
50781;SDS011;36749;37.428;-121.972;2023-09-07T03:41:07;14.57;;;4.68;;
50781;SDS011;36749;37.428;-121.972;2023-09-07T03:43:33;21.27;;;5.05;;
50781;SDS011;36749;37.428;-121.972;2023-09-07T03:45:59;19.20;;;4.90;;
50781;SDS011;36749;37.428;-121.972;2023-09-07T03:48:26;21.58;;;5.20;;
50781;SDS011;36749;37.428;-121.972;2023-09-07T03:50:52;20.80;;;4.82;;
50781;SDS011;36749;37.428;-121.972;2023-09-07T03:53:18;16.17;;;3.88;;
50781;SDS011;36749;37.428;-121.972;2023-09-07T03:55:44;18.65;;;4.60;;
50781;SDS011;36749;37.428;-121.972;2023-09-07T03:58:11;20.25;;;5.20;;
50781;SDS011;36749;37.428;-121.972;2023-09-07T04:00:40;19.83;;;4.45;;
50781;SDS011;36749;37.428;-121.972;2023-09-07T04:03:07;13.65;;;3.70;;
50781;SDS011;36749;37.428;-121.972;2023-09-07T04:05:36;16.73;;;4.38;;
50781;SDS011;36749;37.428;-121.972;2023-09-07T04:08:03;18.00;;;4.88;;
50781;SDS011;36749;37.428;-121.972;2023-09-07T04:10:30;14.65;;;4.43;;
50781;SDS011;36749;37.428;-121.972;2023-09-07T04:12:56;17.42;;;4.22;;
50781;SDS011;36749;37.428;-121.972;2023-09-07T04:15:22;16.45;;;4.15;;
50781;SDS011;36749;37.428;-121.972;2023-09-07T04:17:50;20.10;;;5.25;;
50781;SDS011;36749;37.428;-121.972;2023-09-07T04:20:17;15.30;;;5.05;;
50781;SDS011;36749;37.428;-121.972;2023-09-07T04:22:43;15.65;;;5.10;;
50781;SDS011;36749;37.428;-121.972;2023-09-07T04:25:09;14.15;;;4.68;;
50781;SDS011;36749;37.428;-121.972;2023-09-07T04:27:35;22.17;;;4.57;;
50781;SDS011;36749;37.428;-121.972;2023-09-07T04:30:01;13.52;;;4.03;;
50781;SDS011;36749;37.428;-121.972;2023-09-07T04:32:28;16.17;;;4.22;;
50781;SDS011;36749;37.428;-121.972;2023-09-07T04:34:55;15.30;;;4.20;;
50781;SDS011;36749;37.428;-121.972;2023-09-07T04:37:22;22.50;;;4.25;;
50781;SDS011;36749;37.428;-121.972;2023-09-07T04:39:52;12.65;;;3.85;;
50781;SDS011;36749;37.428;-121.972;2023-09-07T04:42:19;15.88;;;4.15;;
50781;SDS011;36749;37.428;-121.972;2023-09-07T04:44:46;16.98;;;4.60;;
50781;SDS011;36749;37.428;-121.972;2023-09-07T04:47:13;17.23;;;4.40;;
50781;SDS011;36749;37.428;-121.972;2023-09-07T04:49:41;18.27;;;4.22;;
50781;SDS011;36749;37.428;-121.972;2023-09-07T04:52:07;19.02;;;3.90;;
50781;SDS011;36749;37.428;-121.972;2023-09-07T04:54:34;14.82;;;4.43;;
50781;SDS011;36749;37.428;-121.972;2023-09-07T04:57:01;16.13;;;4.82;;
50781;SDS011;36749;37.428;-121.972;2023-09-07T04:59:27;16.67;;;4.28;;
50781;SDS011;36749;37.428;-121.972;2023-09-07T05:01:53;16.90;;;4.13;;
50781;SDS011;36749;37.428;-121.972;2023-09-07T05:04:19;17.00;;;5.05;;
50781;SDS011;36749;37.428;-121.972;2023-09-07T05:06:46;15.48;;;4.53;;
50781;SDS011;36749;37.428;-121.972;2023-09-07T05:09:12;19.40;;;5.00;;
50781;SDS011;36749;37.428;-121.972;2023-09-07T05:11:38;19.02;;;4.65;;
50781;SDS011;36749;37.428;-121.972;2023-09-07T05:14:05;16.30;;;4.03;;
50781;SDS011;36749;37.428;-121.972;2023-09-07T05:16:31;15.52;;;4.07;;
50781;SDS011;36749;37.428;-121.972;2023-09-07T05:18:57;14.95;;;4.40;;
50781;SDS011;36749;37.428;-121.972;2023-09-07T05:21:23;14.07;;;4.53;;
50781;SDS011;36749;37.428;-121.972;2023-09-07T05:23:49;20.17;;;5.00;;
50781;SDS011;36749;37.428;-121.972;2023-09-07T05:26:20;20.33;;;4.32;;
50781;SDS011;36749;37.428;-121.972;2023-09-07T05:28:51;18.20;;;4.22;;
50781;SDS011;36749;37.428;-121.972;2023-09-07T05:31:18;15.23;;;4.40;;
50781;SDS011;36749;37.428;-121.972;2023-09-07T05:33:44;17.23;;;4.80;;
50781;SDS011;36749;37.428;-121.972;2023-09-07T05:36:10;21.30;;;4.15;;
50781;SDS011;36749;37.428;-121.972;2023-09-07T05:38:36;25.63;;;5.38;;
50781;SDS011;36749;37.428;-121.972;2023-09-07T05:41:03;23.85;;;5.18;;
50781;SDS011;36749;37.428;-121.972;2023-09-07T05:43:29;17.27;;;4.65;;
50781;SDS011;36749;37.428;-121.972;2023-09-07T05:45:55;22.25;;;4.75;;
50781;SDS011;36749;37.428;-121.972;2023-09-07T05:48:22;19.70;;;5.10;;
50781;SDS011;36749;37.428;-121.972;2023-09-07T05:50:48;16.55;;;4.95;;
50781;SDS011;36749;37.428;-121.972;2023-09-07T05:53:14;14.00;;;4.15;;
50781;SDS011;36749;37.428;-121.972;2023-09-07T05:55:40;16.10;;;4.18;;
50781;SDS011;36749;37.428;-121.972;2023-09-07T05:58:07;20.90;;;4.80;;
50781;SDS011;36749;37.428;-121.972;2023-09-07T06:00:34;17.55;;;4.45;;
50781;SDS011;36749;37.428;-121.972;2023-09-07T06:03:01;15.88;;;4.72;;
50781;SDS011;36749;37.428;-121.972;2023-09-07T06:05:28;16.63;;;4.32;;
50781;SDS011;36749;37.428;-121.972;2023-09-07T06:07:55;17.63;;;5.07;;
50781;SDS011;36749;37.428;-121.972;2023-09-07T06:10:21;19.17;;;5.72;;
50781;SDS011;36749;37.428;-121.972;2023-09-07T06:12:47;16.83;;;4.53;;
50781;SDS011;36749;37.428;-121.972;2023-09-07T06:15:13;17.80;;;4.32;;
50781;SDS011;36749;37.428;-121.972;2023-09-07T06:17:39;15.35;;;4.40;;
50781;SDS011;36749;37.428;-121.972;2023-09-07T06:20:06;16.98;;;4.80;;
50781;SDS011;36749;37.428;-121.972;2023-09-07T06:22:32;15.43;;;4.20;;
50781;SDS011;36749;37.428;-121.972;2023-09-07T06:24:59;14.00;;;4.10;;
50781;SDS011;36749;37.428;-121.972;2023-09-07T06:27:25;19.50;;;4.72;;
50781;SDS011;36749;37.428;-121.972;2023-09-07T06:29:51;15.35;;;5.28;;
50781;SDS011;36749;37.428;-121.972;2023-09-07T06:32:17;11.07;;;4.00;;
50781;SDS011;36749;37.428;-121.972;2023-09-07T06:34:44;17.33;;;4.75;;
50781;SDS011;36749;37.428;-121.972;2023-09-07T06:37:10;16.00;;;4.57;;
50781;SDS011;36749;37.428;-121.972;2023-09-07T06:39:37;14.05;;;4.28;;
50781;SDS011;36749;37.428;-121.972;2023-09-07T06:42:03;20.05;;;5.28;;
50781;SDS011;36749;37.428;-121.972;2023-09-07T06:44:29;19.02;;;5.05;;
50781;SDS011;36749;37.428;-121.972;2023-09-07T06:46:55;18.90;;;4.78;;
50781;SDS011;36749;37.428;-121.972;2023-09-07T06:49:22;18.85;;;4.43;;
50781;SDS011;36749;37.428;-121.972;2023-09-07T06:51:48;16.38;;;4.25;;
50781;SDS011;36749;37.428;-121.972;2023-09-07T06:54:14;22.73;;;6.53;;
50781;SDS011;36749;37.428;-121.972;2023-09-07T06:56:40;15.75;;;4.45;;
50781;SDS011;36749;37.428;-121.972;2023-09-07T06:59:06;14.63;;;5.13;;
50781;SDS011;36749;37.428;-121.972;2023-09-07T07:01:33;16.23;;;5.05;;
50781;SDS011;36749;37.428;-121.972;2023-09-07T07:03:59;15.23;;;3.97;;
50781;SDS011;36749;37.428;-121.972;2023-09-07T07:06:25;16.15;;;4.32;;
50781;SDS011;36749;37.428;-121.972;2023-09-07T07:08:51;13.65;;;4.25;;
50781;SDS011;36749;37.428;-121.972;2023-09-07T07:11:18;15.48;;;4.38;;
50781;SDS011;36749;37.428;-121.972;2023-09-07T07:13:45;18.05;;;5.13;;
50781;SDS011;36749;37.428;-121.972;2023-09-07T07:16:11;19.17;;;4.60;;
50781;SDS011;36749;37.428;-121.972;2023-09-07T07:18:57;17.20;;;5.18;;
50781;SDS011;36749;37.428;-121.972;2023-09-07T07:21:24;19.85;;;4.68;;
50781;SDS011;36749;37.428;-121.972;2023-09-07T07:23:50;12.93;;;4.68;;
50781;SDS011;36749;37.428;-121.972;2023-09-07T07:26:16;16.23;;;4.80;;
50781;SDS011;36749;37.428;-121.972;2023-09-07T07:28:42;16.20;;;4.57;;
50781;SDS011;36749;37.428;-121.972;2023-09-07T07:31:09;18.58;;;4.68;;
50781;SDS011;36749;37.428;-121.972;2023-09-07T07:33:36;13.43;;;4.15;;
50781;SDS011;36749;37.428;-121.972;2023-09-07T07:36:03;15.35;;;4.55;;
50781;SDS011;36749;37.428;-121.972;2023-09-07T07:38:30;13.13;;;4.10;;
50781;SDS011;36749;37.428;-121.972;2023-09-07T07:40:56;20.42;;;5.10;;
50781;SDS011;36749;37.428;-121.972;2023-09-07T07:43:22;12.30;;;4.50;;
50781;SDS011;36749;37.428;-121.972;2023-09-07T07:45:48;17.60;;;5.00;;
50781;SDS011;36749;37.428;-121.972;2023-09-07T07:48:15;10.95;;;4.20;;
50781;SDS011;36749;37.428;-121.972;2023-09-07T07:50:41;16.38;;;4.65;;
50781;SDS011;36749;37.428;-121.972;2023-09-07T07:53:07;9.48;;;4.00;;
50781;SDS011;36749;37.428;-121.972;2023-09-07T07:55:37;17.63;;;4.68;;
50781;SDS011;36749;37.428;-121.972;2023-09-07T07:58:07;19.30;;;5.15;;
50781;SDS011;36749;37.428;-121.972;2023-09-07T08:00:37;16.55;;;4.80;;
50781;SDS011;36749;37.428;-121.972;2023-09-07T08:03:06;13.43;;;4.38;;
50781;SDS011;36749;37.428;-121.972;2023-09-07T08:05:32;12.52;;;4.80;;
50781;SDS011;36749;37.428;-121.972;2023-09-07T08:07:59;13.00;;;4.45;;
50781;SDS011;36749;37.428;-121.972;2023-09-07T08:10:26;11.02;;;4.10;;
50781;SDS011;36749;37.428;-121.972;2023-09-07T08:12:55;15.65;;;4.68;;
50781;SDS011;36749;37.428;-121.972;2023-09-07T08:15:21;15.85;;;4.20;;
50781;SDS011;36749;37.428;-121.972;2023-09-07T08:17:50;15.85;;;4.78;;
50781;SDS011;36749;37.428;-121.972;2023-09-07T08:20:17;14.73;;;4.43;;
50781;SDS011;36749;37.428;-121.972;2023-09-07T08:22:43;12.88;;;4.10;;
50781;SDS011;36749;37.428;-121.972;2023-09-07T08:25:11;16.25;;;4.85;;
50781;SDS011;36749;37.428;-121.972;2023-09-07T08:27:39;16.55;;;4.65;;
50781;SDS011;36749;37.428;-121.972;2023-09-07T08:32:42;14.00;;;4.82;;
50781;SDS011;36749;37.428;-121.972;2023-09-07T08:35:10;16.02;;;5.47;;
50781;SDS011;36749;37.428;-121.972;2023-09-07T08:37:38;18.83;;;4.95;;
50781;SDS011;36749;37.428;-121.972;2023-09-07T08:40:05;14.30;;;4.70;;
50781;SDS011;36749;37.428;-121.972;2023-09-07T08:42:36;18.83;;;5.50;;
50781;SDS011;36749;37.428;-121.972;2023-09-07T08:45:03;18.30;;;5.03;;
50781;SDS011;36749;37.428;-121.972;2023-09-07T08:47:33;17.52;;;5.00;;
50781;SDS011;36749;37.428;-121.972;2023-09-07T08:50:00;16.55;;;4.45;;
50781;SDS011;36749;37.428;-121.972;2023-09-07T08:52:27;13.25;;;4.45;;
50781;SDS011;36749;37.428;-121.972;2023-09-07T08:54:55;13.88;;;5.13;;
50781;SDS011;36749;37.428;-121.972;2023-09-07T08:57:24;15.70;;;5.13;;
50781;SDS011;36749;37.428;-121.972;2023-09-07T08:59:50;17.33;;;4.95;;
50781;SDS011;36749;37.428;-121.972;2023-09-07T09:02:16;13.45;;;4.78;;
50781;SDS011;36749;37.428;-121.972;2023-09-07T09:04:43;13.88;;;4.57;;
50781;SDS011;36749;37.428;-121.972;2023-09-07T09:07:09;16.60;;;5.18;;
50781;SDS011;36749;37.428;-121.972;2023-09-07T09:09:35;14.40;;;5.00;;
50781;SDS011;36749;37.428;-121.972;2023-09-07T09:12:12;13.73;;;5.18;;
50781;SDS011;36749;37.428;-121.972;2023-09-07T09:14:41;17.27;;;5.35;;
50781;SDS011;36749;37.428;-121.972;2023-09-07T09:17:13;14.93;;;4.30;;
50781;SDS011;36749;37.428;-121.972;2023-09-07T09:19:40;13.98;;;5.22;;
50781;SDS011;36749;37.428;-121.972;2023-09-07T09:22:09;14.13;;;4.93;;
50781;SDS011;36749;37.428;-121.972;2023-09-07T09:24:36;22.80;;;5.95;;
50781;SDS011;36749;37.428;-121.972;2023-09-07T09:27:03;14.38;;;4.70;;
50781;SDS011;36749;37.428;-121.972;2023-09-07T09:29:32;19.92;;;5.93;;
50781;SDS011;36749;37.428;-121.972;2023-09-07T09:32:00;14.38;;;4.85;;
50781;SDS011;36749;37.428;-121.972;2023-09-07T09:34:36;17.23;;;5.57;;
50781;SDS011;36749;37.428;-121.972;2023-09-07T09:37:03;15.07;;;4.75;;
50781;SDS011;36749;37.428;-121.972;2023-09-07T09:39:29;16.67;;;5.15;;
50781;SDS011;36749;37.428;-121.972;2023-09-07T09:41:56;21.25;;;6.07;;
50781;SDS011;36749;37.428;-121.972;2023-09-07T09:44:23;13.80;;;5.20;;
50781;SDS011;36749;37.428;-121.972;2023-09-07T09:46:52;17.17;;;4.97;;
50781;SDS011;36749;37.428;-121.972;2023-09-07T09:49:21;14.32;;;5.10;;
50781;SDS011;36749;37.428;-121.972;2023-09-07T09:51:49;17.27;;;5.65;;
50781;SDS011;36749;37.428;-121.972;2023-09-07T09:54:18;13.85;;;5.15;;
50781;SDS011;36749;37.428;-121.972;2023-09-07T09:56:44;16.08;;;4.40;;
50781;SDS011;36749;37.428;-121.972;2023-09-07T09:59:14;15.13;;;5.03;;
50781;SDS011;36749;37.428;-121.972;2023-09-07T10:01:41;11.85;;;4.13;;
50781;SDS011;36749;37.428;-121.972;2023-09-07T10:04:11;16.70;;;5.20;;
50781;SDS011;36749;37.428;-121.972;2023-09-07T10:06:39;17.75;;;5.35;;
50781;SDS011;36749;37.428;-121.972;2023-09-07T10:09:06;15.73;;;4.65;;
50781;SDS011;36749;37.428;-121.972;2023-09-07T10:11:36;15.32;;;4.72;;
50781;SDS011;36749;37.428;-121.972;2023-09-07T10:14:03;18.25;;;5.68;;
50781;SDS011;36749;37.428;-121.972;2023-09-07T10:16:49;18.10;;;5.57;;
50781;SDS011;36749;37.428;-121.972;2023-09-07T10:19:19;14.27;;;4.78;;
50781;SDS011;36749;37.428;-121.972;2023-09-07T10:21:46;14.40;;;5.68;;
50781;SDS011;36749;37.428;-121.972;2023-09-07T10:26:59;15.10;;;5.40;;
50781;SDS011;36749;37.428;-121.972;2023-09-07T10:29:26;20.15;;;5.00;;
50781;SDS011;36749;37.428;-121.972;2023-09-07T10:31:53;15.15;;;5.43;;
50781;SDS011;36749;37.428;-121.972;2023-09-07T10:34:19;17.15;;;5.30;;
50781;SDS011;36749;37.428;-121.972;2023-09-07T10:36:47;14.85;;;5.30;;
50781;SDS011;36749;37.428;-121.972;2023-09-07T10:39:16;15.40;;;5.43;;
50781;SDS011;36749;37.428;-121.972;2023-09-07T10:41:43;13.77;;;5.35;;
50781;SDS011;36749;37.428;-121.972;2023-09-07T10:44:09;15.30;;;5.85;;
50781;SDS011;36749;37.428;-121.972;2023-09-07T10:46:36;18.85;;;6.28;;
50781;SDS011;36749;37.428;-121.972;2023-09-07T10:49:05;12.82;;;5.13;;
50781;SDS011;36749;37.428;-121.972;2023-09-07T10:51:39;10.65;;;5.47;;
50781;SDS011;36749;37.428;-121.972;2023-09-07T10:54:13;14.77;;;5.85;;
50781;SDS011;36749;37.428;-121.972;2023-09-07T10:56:42;18.35;;;7.07;;
50781;SDS011;36749;37.428;-121.972;2023-09-07T10:59:09;20.27;;;5.80;;
50781;SDS011;36749;37.428;-121.972;2023-09-07T11:01:35;12.15;;;5.22;;
50781;SDS011;36749;37.428;-121.972;2023-09-07T11:04:02;17.38;;;5.93;;
50781;SDS011;36749;37.428;-121.972;2023-09-07T11:06:30;15.93;;;5.65;;
50781;SDS011;36749;37.428;-121.972;2023-09-07T11:09:00;15.32;;;5.65;;
50781;SDS011;36749;37.428;-121.972;2023-09-07T11:11:29;13.48;;;5.63;;
50781;SDS011;36749;37.428;-121.972;2023-09-07T11:14:02;13.18;;;5.75;;
50781;SDS011;36749;37.428;-121.972;2023-09-07T11:16:29;14.80;;;6.05;;
50781;SDS011;36749;37.428;-121.972;2023-09-07T11:18:55;24.25;;;6.35;;
50781;SDS011;36749;37.428;-121.972;2023-09-07T11:21:22;14.57;;;5.95;;
50781;SDS011;36749;37.428;-121.972;2023-09-07T11:23:48;20.13;;;7.40;;
50781;SDS011;36749;37.428;-121.972;2023-09-07T11:26:16;16.83;;;6.53;;
50781;SDS011;36749;37.428;-121.972;2023-09-07T11:28:45;16.27;;;6.38;;
50781;SDS011;36749;37.428;-121.972;2023-09-07T11:31:12;16.02;;;6.10;;
50781;SDS011;36749;37.428;-121.972;2023-09-07T11:33:38;16.65;;;5.95;;
50781;SDS011;36749;37.428;-121.972;2023-09-07T11:36:07;20.58;;;7.45;;
50781;SDS011;36749;37.428;-121.972;2023-09-07T11:38:36;17.88;;;6.53;;
50781;SDS011;36749;37.428;-121.972;2023-09-07T11:41:05;20.88;;;7.32;;
50781;SDS011;36749;37.428;-121.972;2023-09-07T11:43:31;11.73;;;6.10;;
50781;SDS011;36749;37.428;-121.972;2023-09-07T11:45:58;16.30;;;5.28;;
50781;SDS011;36749;37.428;-121.972;2023-09-07T11:48:26;18.48;;;5.78;;
50781;SDS011;36749;37.428;-121.972;2023-09-07T11:50:53;16.92;;;6.82;;
50781;SDS011;36749;37.428;-121.972;2023-09-07T11:53:19;12.93;;;5.30;;
50781;SDS011;36749;37.428;-121.972;2023-09-07T11:55:46;11.80;;;5.70;;
50781;SDS011;36749;37.428;-121.972;2023-09-07T11:58:12;17.55;;;6.22;;
50781;SDS011;36749;37.428;-121.972;2023-09-07T12:00:38;15.13;;;6.07;;
50781;SDS011;36749;37.428;-121.972;2023-09-07T12:03:07;13.82;;;6.03;;
50781;SDS011;36749;37.428;-121.972;2023-09-07T12:05:33;15.57;;;6.25;;
50781;SDS011;36749;37.428;-121.972;2023-09-07T12:07:59;15.43;;;6.63;;
50781;SDS011;36749;37.428;-121.972;2023-09-07T12:10:25;17.90;;;6.97;;
50781;SDS011;36749;37.428;-121.972;2023-09-07T12:12:52;16.77;;;6.32;;
50781;SDS011;36749;37.428;-121.972;2023-09-07T12:15:18;15.57;;;6.68;;
50781;SDS011;36749;37.428;-121.972;2023-09-07T12:17:44;13.52;;;6.55;;
50781;SDS011;36749;37.428;-121.972;2023-09-07T12:20:10;16.50;;;7.10;;
50781;SDS011;36749;37.428;-121.972;2023-09-07T12:22:38;14.57;;;6.28;;
50781;SDS011;36749;37.428;-121.972;2023-09-07T12:25:06;19.60;;;6.97;;
50781;SDS011;36749;37.428;-121.972;2023-09-07T12:27:33;16.05;;;6.68;;
50781;SDS011;36749;37.428;-121.972;2023-09-07T12:30:00;17.77;;;7.10;;
50781;SDS011;36749;37.428;-121.972;2023-09-07T12:32:33;18.20;;;7.43;;
50781;SDS011;36749;37.428;-121.972;2023-09-07T12:34:59;17.55;;;8.07;;
50781;SDS011;36749;37.428;-121.972;2023-09-07T12:37:26;19.45;;;6.50;;
50781;SDS011;36749;37.428;-121.972;2023-09-07T12:39:52;16.05;;;8.10;;
50781;SDS011;36749;37.428;-121.972;2023-09-07T12:42:18;18.50;;;7.60;;
50781;SDS011;36749;37.428;-121.972;2023-09-07T12:44:44;20.40;;;6.90;;
50781;SDS011;36749;37.428;-121.972;2023-09-07T12:47:10;17.65;;;6.55;;
50781;SDS011;36749;37.428;-121.972;2023-09-07T12:49:36;15.90;;;7.60;;
50781;SDS011;36749;37.428;-121.972;2023-09-07T12:52:03;15.70;;;6.18;;
50781;SDS011;36749;37.428;-121.972;2023-09-07T12:54:36;15.73;;;6.65;;
50781;SDS011;36749;37.428;-121.972;2023-09-07T12:57:03;15.90;;;7.20;;
50781;SDS011;36749;37.428;-121.972;2023-09-07T12:59:29;16.60;;;6.18;;
50781;SDS011;36749;37.428;-121.972;2023-09-07T13:01:55;16.48;;;6.47;;
50781;SDS011;36749;37.428;-121.972;2023-09-07T13:04:22;13.95;;;6.90;;
50781;SDS011;36749;37.428;-121.972;2023-09-07T13:06:48;17.17;;;6.88;;
50781;SDS011;36749;37.428;-121.972;2023-09-07T13:09:14;19.67;;;7.10;;
50781;SDS011;36749;37.428;-121.972;2023-09-07T13:11:40;16.30;;;7.03;;
50781;SDS011;36749;37.428;-121.972;2023-09-07T13:14:06;16.15;;;6.35;;
50781;SDS011;36749;37.428;-121.972;2023-09-07T13:16:35;20.55;;;6.78;;
50781;SDS011;36749;37.428;-121.972;2023-09-07T13:19:02;18.38;;;7.97;;
50781;SDS011;36749;37.428;-121.972;2023-09-07T13:21:28;22.05;;;8.30;;
50781;SDS011;36749;37.428;-121.972;2023-09-07T13:23:54;22.65;;;8.57;;
50781;SDS011;36749;37.428;-121.972;2023-09-07T13:26:20;26.55;;;7.22;;
50781;SDS011;36749;37.428;-121.972;2023-09-07T13:28:47;23.48;;;8.10;;
50781;SDS011;36749;37.428;-121.972;2023-09-07T13:31:13;24.58;;;8.73;;
50781;SDS011;36749;37.428;-121.972;2023-09-07T13:33:39;20.80;;;7.93;;
50781;SDS011;36749;37.428;-121.972;2023-09-07T13:36:26;30.02;;;9.02;;
50781;SDS011;36749;37.428;-121.972;2023-09-07T13:38:52;23.00;;;8.32;;
50781;SDS011;36749;37.428;-121.972;2023-09-07T13:41:22;20.98;;;8.73;;
50781;SDS011;36749;37.428;-121.972;2023-09-07T13:43:49;18.23;;;9.07;;
50781;SDS011;36749;37.428;-121.972;2023-09-07T13:46:15;18.88;;;8.38;;
50781;SDS011;36749;37.428;-121.972;2023-09-07T13:48:41;24.60;;;10.25;;
50781;SDS011;36749;37.428;-121.972;2023-09-07T13:51:07;17.58;;;8.90;;
50781;SDS011;36749;37.428;-121.972;2023-09-07T13:53:34;23.13;;;9.48;;
50781;SDS011;36749;37.428;-121.972;2023-09-07T13:56:00;21.00;;;10.35;;
50781;SDS011;36749;37.428;-121.972;2023-09-07T13:58:26;21.40;;;8.65;;
50781;SDS011;36749;37.428;-121.972;2023-09-07T14:00:53;19.88;;;7.85;;